createdAt,value
2019-04-16T00:00:15.269Z,9.00
2019-04-16T00:01:15.256Z,8.20
2019-04-16T00:02:18.555Z,9.50
2019-04-16T00:03:15.256Z,8.10
2019-04-16T00:04:15.221Z,7.60
2019-04-16T00:05:15.215Z,9.40
2019-04-16T00:06:15.204Z,9.40
2019-04-16T00:07:15.195Z,10.00
2019-04-16T00:08:27.403Z,8.40
2019-04-16T00:09:16.172Z,8.40
2019-04-16T00:10:15.169Z,9.30
2019-04-16T00:11:15.150Z,8.20
2019-04-16T00:12:15.141Z,9.10
2019-04-16T00:13:15.162Z,9.40
2019-04-16T00:14:15.119Z,9.50
2019-04-16T00:15:15.108Z,8.30
2019-04-16T00:16:15.096Z,9.50
2019-04-16T00:17:15.854Z,9.20
2019-04-16T00:18:18.497Z,10.50
2019-04-16T00:19:15.066Z,9.70
2019-04-16T00:20:15.052Z,8.40
2019-04-16T00:21:15.039Z,9.60
2019-04-16T00:22:15.027Z,9.50
2019-04-16T00:23:15.020Z,11.10
2019-04-16T00:24:18.283Z,10.00
2019-04-16T00:25:15.006Z,11.00
2019-04-16T00:26:14.982Z,9.10
2019-04-16T00:27:14.977Z,10.80
2019-04-16T00:28:14.961Z,9.60
2019-04-16T00:29:14.961Z,10.30
2019-04-16T00:30:14.946Z,9.50
2019-04-16T00:31:14.944Z,10.20
2019-04-16T00:32:14.917Z,9.40
2019-04-16T00:33:14.906Z,8.70
2019-04-16T00:34:14.900Z,10.40
2019-04-16T00:35:15.759Z,10.80
2019-04-16T00:36:15.325Z,10.30
2019-04-16T00:37:14.871Z,11.20
2019-04-16T00:38:14.853Z,11.90
2019-04-16T00:39:14.854Z,10.60
2019-04-16T00:40:14.846Z,12.10
2019-04-16T00:41:14.821Z,9.10
2019-04-16T00:42:14.809Z,9.20
2019-04-16T00:43:14.803Z,8.30
2019-04-16T00:44:14.792Z,9.30
2019-04-16T00:45:14.810Z,8.70
2019-04-16T00:46:14.769Z,10.70
2019-04-16T00:47:14.761Z,9.00
2019-04-16T00:48:14.752Z,8.90
2019-04-16T00:49:14.739Z,9.00
2019-04-16T00:50:14.733Z,9.70
2019-04-16T00:51:14.755Z,9.70
2019-04-16T00:52:14.707Z,9.50
2019-04-16T00:53:14.697Z,10.10
2019-04-16T00:54:14.682Z,10.30
2019-04-16T00:55:14.822Z,9.50
2019-04-16T00:56:16.205Z,9.60
2019-04-16T00:57:17.703Z,10.20
2019-04-16T00:58:19.500Z,10.20
2019-04-16T00:59:15.671Z,8.20
2019-04-16T01:00:14.615Z,8.80
2019-04-16T01:01:14.605Z,8.70
2019-04-16T01:02:14.608Z,10.20
2019-04-16T01:03:14.589Z,10.10
2019-04-16T01:04:14.581Z,9.50
2019-04-16T01:05:14.566Z,10.50
2019-04-16T01:06:14.566Z,11.20
2019-04-16T01:07:14.554Z,9.20
2019-04-16T01:08:14.530Z,10.40
2019-04-16T01:09:14.524Z,7.80
2019-04-16T01:10:14.509Z,10.20
2019-04-16T01:11:14.500Z,10.60
2019-04-16T01:12:14.502Z,9.40
2019-04-16T01:13:14.476Z,10.50
2019-04-16T01:14:14.467Z,10.20
2019-04-16T01:15:14.455Z,9.80
2019-04-16T01:16:14.459Z,8.70
2019-04-16T01:17:14.435Z,9.30
2019-04-16T01:18:14.427Z,8.80
2019-04-16T01:19:14.414Z,8.40
2019-04-16T01:20:14.408Z,9.50
2019-04-16T01:21:14.954Z,10.00
2019-04-16T01:22:16.051Z,9.70
2019-04-16T01:23:17.560Z,9.80
2019-04-16T01:24:14.366Z,9.30
2019-04-16T01:25:14.366Z,8.70
2019-04-16T01:26:14.343Z,9.80
2019-04-16T01:27:14.335Z,12.30
2019-04-16T01:28:14.315Z,8.70
2019-04-16T01:29:14.317Z,8.50
2019-04-16T01:30:14.316Z,11.00
2019-04-16T01:31:14.293Z,10.30
2019-04-16T01:32:14.273Z,11.10
2019-04-16T01:33:15.290Z,9.00
2019-04-16T01:34:15.283Z,8.40
2019-04-16T01:35:18.460Z,10.20
2019-04-16T01:36:15.243Z,9.90
2019-04-16T01:37:14.230Z,9.50
2019-04-16T01:38:14.209Z,10.70
2019-04-16T01:39:17.971Z,8.80
2019-04-16T01:40:18.382Z,9.60
2019-04-16T01:41:15.187Z,9.40
2019-04-16T01:42:14.168Z,11.70
2019-04-16T01:43:14.155Z,8.90
2019-04-16T01:44:14.160Z,8.70
2019-04-16T01:45:14.147Z,10.50
2019-04-16T01:46:14.131Z,10.30
2019-04-16T01:47:14.118Z,10.70
2019-04-16T01:48:14.106Z,11.50
2019-04-16T01:49:14.091Z,9.80
2019-04-16T01:50:14.169Z,10.30
2019-04-16T01:51:15.435Z,9.10
2019-04-16T01:52:18.661Z,10.80
2019-04-16T01:53:15.055Z,10.50
2019-04-16T01:54:14.042Z,10.90
2019-04-16T01:55:14.059Z,10.10
2019-04-16T01:56:14.020Z,12.20
2019-04-16T01:57:14.005Z,9.20
2019-04-16T01:58:14.007Z,11.60
2019-04-16T01:59:13.986Z,8.90
2019-04-16T02:00:13.978Z,9.70
2019-04-16T02:01:13.968Z,9.60
2019-04-16T02:02:15.748Z,10.90
2019-04-16T02:03:17.578Z,11.20
2019-04-16T02:04:13.938Z,8.80
2019-04-16T02:05:13.918Z,10.20
2019-04-16T02:06:13.912Z,11.00
2019-04-16T02:07:13.896Z,12.70
2019-04-16T02:08:13.886Z,10.30
2019-04-16T02:09:22.328Z,10.60
2019-04-16T02:10:14.863Z,11.20
2019-04-16T02:11:13.852Z,8.60
2019-04-16T02:12:14.169Z,11.70
2019-04-16T02:13:15.198Z,11.90
2019-04-16T02:14:16.811Z,11.00
2019-04-16T02:15:13.819Z,9.70
2019-04-16T02:16:13.803Z,10.40
2019-04-16T02:17:13.798Z,11.30
2019-04-16T02:18:13.777Z,12.90
2019-04-16T02:19:13.769Z,11.30
2019-04-16T02:20:13.766Z,10.30
2019-04-16T02:21:13.745Z,10.60
2019-04-16T02:22:14.122Z,11.30
2019-04-16T02:23:16.496Z,11.40
2019-04-16T02:24:13.711Z,13.00
2019-04-16T02:25:16.419Z,11.10
2019-04-16T02:26:14.698Z,10.80
2019-04-16T02:27:13.693Z,11.10
2019-04-16T02:28:13.668Z,11.40
2019-04-16T02:29:13.716Z,12.80
2019-04-16T02:30:13.659Z,12.10
2019-04-16T02:31:16.068Z,11.60
2019-04-16T02:32:13.643Z,11.50
2019-04-16T02:33:13.632Z,12.20
2019-04-16T02:34:13.609Z,12.50
2019-04-16T02:35:13.597Z,12.80
2019-04-16T02:36:13.588Z,11.50
2019-04-16T02:37:13.579Z,11.00
2019-04-16T02:38:14.334Z,13.30
2019-04-16T02:39:13.557Z,11.30
2019-04-16T02:40:18.359Z,14.30
2019-04-16T02:41:14.535Z,10.20
2019-04-16T02:42:13.526Z,11.70
2019-04-16T02:43:13.519Z,12.10
2019-04-16T02:44:15.901Z,11.90
2019-04-16T02:45:13.491Z,12.90
2019-04-16T02:46:13.613Z,12.80
2019-04-16T02:47:13.463Z,12.20
2019-04-16T02:48:16.582Z,11.80
2019-04-16T02:49:13.442Z,13.70
2019-04-16T02:50:13.574Z,11.90
2019-04-16T02:51:13.445Z,12.70
2019-04-16T02:52:16.459Z,13.50
2019-04-16T02:53:13.411Z,13.10
2019-04-16T02:54:13.669Z,13.50
2019-04-16T02:55:13.386Z,13.70
2019-04-16T02:56:17.052Z,14.80
2019-04-16T02:57:14.361Z,11.80
2019-04-16T02:58:13.357Z,12.00
2019-04-16T02:59:13.739Z,12.30
2019-04-16T03:00:17.607Z,11.20
2019-04-16T03:01:14.315Z,13.90
2019-04-16T03:02:13.306Z,13.70
2019-04-16T03:03:13.320Z,11.70
2019-04-16T03:04:13.282Z,14.40
2019-04-16T03:05:13.272Z,12.30
2019-04-16T03:06:13.263Z,11.60
2019-04-16T03:07:13.246Z,14.50
2019-04-16T03:08:13.239Z,12.00
2019-04-16T03:09:13.241Z,13.70
2019-04-16T03:10:13.950Z,12.80
2019-04-16T03:11:13.798Z,13.10
2019-04-16T03:12:13.348Z,11.50
2019-04-16T03:13:13.189Z,12.40
2019-04-16T03:14:13.181Z,14.90
2019-04-16T03:15:13.166Z,11.60
2019-04-16T03:16:13.156Z,12.90
2019-04-16T03:17:13.152Z,12.50
2019-04-16T03:18:15.222Z,13.30
2019-04-16T03:19:13.147Z,12.60
2019-04-16T03:20:13.111Z,13.80
2019-04-16T03:21:13.188Z,13.50
2019-04-16T03:22:13.086Z,13.70
2019-04-16T03:23:13.083Z,14.30
2019-04-16T03:24:13.072Z,15.70
2019-04-16T03:25:14.354Z,13.20
2019-04-16T03:26:16.172Z,13.70
2019-04-16T03:27:13.034Z,18.00
2019-04-16T03:28:13.172Z,14.20
2019-04-16T03:29:13.017Z,12.70
2019-04-16T03:30:13.011Z,13.00
2019-04-16T03:31:19.462Z,13.60
2019-04-16T03:32:15.224Z,15.60
2019-04-16T03:33:14.935Z,12.60
2019-04-16T03:34:12.967Z,14.30
2019-04-16T03:35:12.985Z,14.00
2019-04-16T03:36:13.013Z,13.90
2019-04-16T03:37:12.931Z,13.90
2019-04-16T03:38:12.916Z,14.60
2019-04-16T03:39:13.944Z,15.00
2019-04-16T03:40:17.055Z,15.50
2019-04-16T03:41:13.894Z,14.30
2019-04-16T03:42:24.414Z,14.70
2019-04-16T03:43:12.867Z,15.20
2019-04-16T03:44:12.854Z,15.40
2019-04-16T03:45:12.846Z,14.40
2019-04-16T03:46:14.106Z,17.00
2019-04-16T03:47:15.766Z,15.90
2019-04-16T03:48:13.809Z,15.10
2019-04-16T03:49:12.803Z,18.60
2019-04-16T03:50:12.793Z,29.90
2019-04-16T03:51:12.786Z,27.90
2019-04-16T03:52:12.779Z,40.00
2019-04-16T03:53:16.435Z,48.50
2019-04-16T03:54:13.855Z,50.50
2019-04-16T03:55:12.740Z,59.90
2019-04-16T03:56:12.837Z,62.40
2019-04-16T03:57:12.719Z,53.50
2019-04-16T03:58:12.709Z,53.00
2019-04-16T03:59:12.698Z,54.60
2019-04-16T04:00:13.195Z,53.10
2019-04-16T04:01:14.440Z,52.00
2019-04-16T04:02:15.305Z,49.90
2019-04-16T04:03:12.657Z,43.10
2019-04-16T04:04:12.640Z,44.10
2019-04-16T04:05:12.628Z,39.50
2019-04-16T04:06:12.627Z,35.20
2019-04-16T04:07:13.380Z,36.70
2019-04-16T04:08:16.394Z,29.50
2019-04-16T04:09:13.676Z,26.30
2019-04-16T04:10:12.591Z,24.40
2019-04-16T04:11:12.624Z,22.30
2019-04-16T04:12:14.098Z,24.70
2019-04-16T04:13:17.503Z,20.10
2019-04-16T04:14:13.534Z,19.70
2019-04-16T04:15:12.541Z,19.60
2019-04-16T04:16:12.521Z,22.30
2019-04-16T04:17:12.511Z,20.40
2019-04-16T04:18:12.923Z,19.60
2019-04-16T04:19:15.381Z,21.60
2019-04-16T04:20:14.640Z,21.40
2019-04-16T04:21:13.465Z,21.70
2019-04-16T04:22:12.458Z,19.40
2019-04-16T04:23:12.662Z,19.50
2019-04-16T04:24:12.576Z,20.80
2019-04-16T04:25:12.594Z,16.80
2019-04-16T04:26:12.656Z,20.60
2019-04-16T04:27:14.435Z,19.80
2019-04-16T04:28:12.401Z,22.80
2019-04-16T04:29:12.388Z,17.40
2019-04-16T04:30:12.374Z,20.90
2019-04-16T04:31:12.360Z,19.30
2019-04-16T04:32:12.349Z,16.40
2019-04-16T04:33:12.364Z,16.50
2019-04-16T04:34:15.347Z,17.20
2019-04-16T04:35:12.320Z,19.00
2019-04-16T04:36:12.307Z,19.40
2019-04-16T04:37:12.292Z,18.40
2019-04-16T04:38:12.292Z,19.60
2019-04-16T04:39:15.199Z,17.20
2019-04-16T04:40:12.783Z,16.80
2019-04-16T04:41:12.252Z,19.80
2019-04-16T04:42:12.239Z,16.00
2019-04-16T04:43:12.234Z,20.40
2019-04-16T04:44:12.226Z,22.40
2019-04-16T04:45:12.251Z,18.30
2019-04-16T04:46:14.797Z,17.90
2019-04-16T04:47:12.195Z,17.30
2019-04-16T04:48:12.498Z,18.20
2019-04-16T04:49:12.172Z,17.50
2019-04-16T04:50:12.212Z,18.20
2019-04-16T04:51:12.178Z,17.70
2019-04-16T04:52:14.715Z,19.50
2019-04-16T04:53:12.126Z,18.30
2019-04-16T04:54:12.119Z,19.20
2019-04-16T04:55:12.110Z,20.70
2019-04-16T04:56:12.102Z,19.70
2019-04-16T04:57:12.086Z,20.30
2019-04-16T04:58:12.067Z,16.80
2019-04-16T04:59:12.063Z,18.10
2019-04-16T05:00:12.053Z,16.50
2019-04-16T05:01:13.578Z,18.70
2019-04-16T05:02:14.324Z,16.50
2019-04-16T05:03:12.438Z,18.90
2019-04-16T05:04:12.006Z,19.90
2019-04-16T05:05:12.002Z,17.90
2019-04-16T05:06:11.995Z,18.20
2019-04-16T05:07:12.187Z,18.70
2019-04-16T05:08:11.963Z,20.50
2019-04-16T05:09:11.953Z,16.30
2019-04-16T05:10:11.953Z,19.30
2019-04-16T05:11:12.501Z,19.50
2019-04-16T05:12:11.947Z,18.70
2019-04-16T05:13:11.915Z,18.70
2019-04-16T05:14:11.898Z,17.10
2019-04-16T05:15:11.890Z,17.80
2019-04-16T05:16:11.881Z,15.20
2019-04-16T05:17:11.874Z,17.90
2019-04-16T05:18:11.863Z,19.60
2019-04-16T05:19:14.801Z,15.80
2019-04-16T05:20:14.853Z,16.80
2019-04-16T05:21:11.830Z,17.10
2019-04-16T05:22:11.894Z,17.60
2019-04-16T05:23:11.927Z,46.30
2019-04-16T05:24:11.793Z,51.70
2019-04-16T05:25:11.785Z,47.20
2019-04-16T05:26:11.773Z,21.00
2019-04-16T05:27:12.023Z,27.20
2019-04-16T05:28:13.066Z,19.00
2019-04-16T05:29:16.275Z,20.70
2019-04-16T05:30:12.740Z,18.10
2019-04-16T05:31:11.723Z,18.20
2019-04-16T05:32:11.708Z,17.80
2019-04-16T05:33:11.750Z,18.30
2019-04-16T05:34:11.688Z,16.20
2019-04-16T05:35:11.677Z,19.00
2019-04-16T05:36:14.205Z,17.70
2019-04-16T05:37:11.663Z,19.40
2019-04-16T05:38:11.647Z,19.40
2019-04-16T05:39:12.049Z,16.80
2019-04-16T05:40:12.025Z,17.70
2019-04-16T05:41:13.595Z,17.20
2019-04-16T05:42:12.595Z,13.90
2019-04-16T05:43:11.604Z,18.70
2019-04-16T05:44:11.594Z,17.80
2019-04-16T05:45:11.570Z,18.10
2019-04-16T05:46:11.596Z,14.50
2019-04-16T05:47:11.549Z,19.40
2019-04-16T05:48:11.537Z,17.60
2019-04-16T05:49:11.598Z,15.10
2019-04-16T05:50:11.509Z,18.50
2019-04-16T05:51:11.505Z,17.00
2019-04-16T05:52:11.497Z,17.60
2019-04-16T05:53:13.346Z,15.40
2019-04-16T05:54:12.354Z,17.50
2019-04-16T05:55:16.901Z,18.30
2019-04-16T05:56:12.444Z,18.70
2019-04-16T05:57:11.442Z,17.80
2019-04-16T05:58:11.429Z,16.30
2019-04-16T05:59:11.418Z,18.70
2019-04-16T06:00:11.408Z,18.10
2019-04-16T06:01:13.631Z,19.20
2019-04-16T06:02:11.399Z,19.00
2019-04-16T06:03:11.379Z,16.80
2019-04-16T06:04:11.358Z,18.70
2019-04-16T06:05:11.355Z,18.90
2019-04-16T06:06:11.342Z,15.80
2019-04-16T06:07:11.334Z,15.70
2019-04-16T06:08:11.322Z,16.00
2019-04-16T06:09:12.162Z,15.80
2019-04-16T06:10:17.080Z,18.30
2019-04-16T06:11:26.631Z,18.00
2019-04-16T06:12:12.284Z,18.70
2019-04-16T06:13:12.671Z,16.40
2019-04-16T06:14:16.997Z,14.20
2019-04-16T06:15:12.244Z,15.00
2019-04-16T06:16:11.240Z,14.80
2019-04-16T06:17:11.217Z,16.00
2019-04-16T06:18:11.206Z,15.10
2019-04-16T06:19:11.557Z,16.70
2019-04-16T06:20:11.194Z,16.40
2019-04-16T06:21:11.187Z,14.50
2019-04-16T06:22:11.165Z,15.10
2019-04-16T06:23:11.152Z,16.10
2019-04-16T06:24:11.143Z,17.70
2019-04-16T06:25:11.362Z,36.90
2019-04-16T06:26:14.784Z,36.30
2019-04-16T06:27:11.108Z,17.20
2019-04-16T06:28:11.104Z,18.80
2019-04-16T06:29:11.096Z,16.70
2019-04-16T06:30:11.078Z,14.20
2019-04-16T06:31:11.066Z,17.70
2019-04-16T06:32:11.863Z,16.30
2019-04-16T06:33:11.060Z,17.60
2019-04-16T06:34:11.039Z,15.80
2019-04-16T06:35:11.032Z,14.80
2019-04-16T06:36:11.017Z,13.90
2019-04-16T06:37:11.005Z,18.80
2019-04-16T06:38:10.989Z,24.60
2019-04-16T06:39:10.990Z,30.10
2019-04-16T06:40:10.970Z,41.20
2019-04-16T06:41:10.968Z,15.70
2019-04-16T06:42:10.952Z,17.10
2019-04-16T06:43:10.941Z,15.00
2019-04-16T06:44:10.937Z,15.50
2019-04-16T06:45:10.916Z,16.10
2019-04-16T06:46:10.904Z,13.60
2019-04-16T06:47:11.796Z,14.40
2019-04-16T06:48:13.195Z,19.60
2019-04-16T06:49:10.877Z,15.90
2019-04-16T06:50:10.857Z,16.70
2019-04-16T06:51:12.519Z,17.70
2019-04-16T06:52:15.822Z,16.30
2019-04-16T06:53:12.378Z,15.00
2019-04-16T06:54:11.262Z,13.90
2019-04-16T06:55:10.807Z,15.60
2019-04-16T06:56:10.797Z,15.70
2019-04-16T06:57:12.219Z,16.50
2019-04-16T06:58:12.571Z,15.30
2019-04-16T06:59:11.778Z,206.20
2019-04-16T07:00:10.754Z,270.70
2019-04-16T07:01:10.742Z,322.60
2019-04-16T07:02:11.249Z,37.30
2019-04-16T07:03:11.479Z,17.40
2019-04-16T07:04:10.714Z,17.40
2019-04-16T07:05:10.705Z,15.50
2019-04-16T07:06:10.691Z,14.40
2019-04-16T07:07:10.685Z,18.40
2019-04-16T07:08:10.665Z,14.50
2019-04-16T07:09:10.667Z,19.50
2019-04-16T07:10:10.642Z,16.30
2019-04-16T07:11:10.647Z,15.90
2019-04-16T07:12:10.623Z,15.30
2019-04-16T07:13:11.419Z,14.50
2019-04-16T07:14:11.547Z,15.80
2019-04-16T07:15:10.591Z,16.70
2019-04-16T07:16:10.578Z,14.50
2019-04-16T07:17:10.570Z,14.30
2019-04-16T07:18:10.553Z,14.90
2019-04-16T07:19:11.569Z,15.20
2019-04-16T07:20:13.513Z,13.20
2019-04-16T07:21:10.525Z,14.10
2019-04-16T07:22:10.521Z,14.40
2019-04-16T07:23:10.500Z,13.30
2019-04-16T07:24:10.601Z,15.00
2019-04-16T07:25:10.608Z,12.50
2019-04-16T07:26:13.847Z,15.00
2019-04-16T07:27:10.553Z,15.20
2019-04-16T07:28:10.441Z,14.90
2019-04-16T07:29:10.438Z,14.40
2019-04-16T07:30:10.419Z,15.20
2019-04-16T07:31:13.396Z,14.60
2019-04-16T07:32:10.427Z,13.80
2019-04-16T07:33:10.400Z,14.00
2019-04-16T07:34:10.378Z,14.40
2019-04-16T07:35:10.422Z,12.40
2019-04-16T07:36:10.361Z,15.00
2019-04-16T07:37:10.352Z,14.70
2019-04-16T07:38:11.764Z,14.40
2019-04-16T07:39:13.372Z,15.80
2019-04-16T07:40:11.314Z,14.80
2019-04-16T07:41:12.122Z,14.10
2019-04-16T07:42:12.093Z,14.00
2019-04-16T07:43:10.480Z,12.60
2019-04-16T07:44:11.233Z,12.60
2019-04-16T07:45:12.507Z,12.10
2019-04-16T07:46:10.247Z,13.10
2019-04-16T07:47:10.254Z,13.00
2019-04-16T07:48:10.241Z,14.30
2019-04-16T07:49:10.217Z,15.10
2019-04-16T07:50:10.217Z,12.10
2019-04-16T07:51:10.193Z,12.90
2019-04-16T07:52:12.180Z,14.30
2019-04-16T07:53:13.301Z,15.40
2019-04-16T07:54:10.157Z,13.30
2019-04-16T07:55:10.163Z,13.10
2019-04-16T07:56:10.148Z,14.60
2019-04-16T07:57:10.124Z,14.60
2019-04-16T07:58:10.118Z,13.30
2019-04-16T07:59:10.100Z,14.60
2019-04-16T08:00:10.160Z,14.10
2019-04-16T08:01:12.678Z,13.20
2019-04-16T08:02:10.070Z,13.90
2019-04-16T08:03:10.059Z,12.90
2019-04-16T08:04:10.052Z,12.10
2019-04-16T08:05:10.041Z,11.60
2019-04-16T08:06:13.062Z,13.90
2019-04-16T08:07:10.173Z,13.10
2019-04-16T08:08:10.009Z,11.90
2019-04-16T08:09:09.999Z,14.60
2019-04-16T08:10:09.983Z,12.80
2019-04-16T08:11:09.982Z,12.40
2019-04-16T08:12:22.275Z,12.10
2019-04-16T08:13:13.942Z,12.30
2019-04-16T08:14:10.364Z,14.60
2019-04-16T08:15:14.602Z,12.50
2019-04-16T08:16:10.914Z,11.10
2019-04-16T08:17:10.148Z,11.30
2019-04-16T08:18:09.901Z,10.90
2019-04-16T08:19:12.206Z,12.90
2019-04-16T08:20:09.873Z,11.70
2019-04-16T08:21:12.272Z,11.60
2019-04-16T08:22:15.553Z,12.80
2019-04-16T08:23:10.854Z,12.70
2019-04-16T08:24:09.834Z,11.80
2019-04-16T08:25:09.826Z,12.80
2019-04-16T08:26:13.313Z,13.90
2019-04-16T08:27:10.839Z,12.00
2019-04-16T08:28:09.798Z,9.90
2019-04-16T08:29:09.776Z,10.20
2019-04-16T08:30:09.844Z,10.00
2019-04-16T08:31:12.236Z,11.40
2019-04-16T08:32:12.827Z,11.80
2019-04-16T08:33:11.590Z,10.40
2019-04-16T08:34:09.731Z,10.00
2019-04-16T08:35:09.712Z,12.90
2019-04-16T08:36:09.706Z,11.70
2019-04-16T08:37:09.934Z,10.70
2019-04-16T08:38:09.705Z,11.40
2019-04-16T08:39:09.670Z,13.80
2019-04-16T08:40:12.204Z,11.70
2019-04-16T08:41:12.413Z,13.90
2019-04-16T08:42:09.639Z,11.20
2019-04-16T08:43:09.629Z,11.20
2019-04-16T08:44:10.709Z,13.10
2019-04-16T08:45:09.609Z,12.10
2019-04-16T08:46:11.285Z,8.90
2019-04-16T08:47:12.073Z,11.30
2019-04-16T08:48:09.756Z,11.70
2019-04-16T08:49:09.560Z,15.10
2019-04-16T08:50:11.760Z,12.60
2019-04-16T08:51:09.544Z,10.60
2019-04-16T08:52:10.240Z,11.80
2019-04-16T08:53:13.536Z,13.80
2019-04-16T08:54:09.504Z,9.70
2019-04-16T08:55:09.505Z,9.80
2019-04-16T08:56:09.536Z,10.60
2019-04-16T08:57:09.478Z,8.90
2019-04-16T08:58:12.302Z,11.30
2019-04-16T08:59:10.762Z,11.00
2019-04-16T09:00:14.364Z,11.20
2019-04-16T09:01:10.474Z,11.50
2019-04-16T09:02:09.425Z,10.50
2019-04-16T09:03:09.408Z,9.80
2019-04-16T09:04:09.407Z,10.30
2019-04-16T09:05:11.445Z,10.70
2019-04-16T09:06:12.808Z,9.80
2019-04-16T09:07:11.982Z,9.60
2019-04-16T09:08:12.996Z,10.30
2019-04-16T09:09:14.453Z,10.20
2019-04-16T09:10:18.895Z,9.90
2019-04-16T09:11:22.609Z,10.80
2019-04-16T09:12:10.323Z,10.90
2019-04-16T09:13:09.311Z,8.90
2019-04-16T09:14:09.296Z,9.90
2019-04-16T09:15:09.288Z,8.40
2019-04-16T09:16:11.052Z,11.60
2019-04-16T09:17:09.878Z,10.10
2019-04-16T09:18:09.249Z,8.80
2019-04-16T09:19:09.369Z,8.40
2019-04-16T09:20:09.228Z,8.30
2019-04-16T09:21:10.296Z,9.50
2019-04-16T09:22:09.228Z,11.70
2019-04-16T09:23:09.202Z,13.20
2019-04-16T09:24:09.957Z,11.50
2019-04-16T09:25:12.521Z,9.80
2019-04-16T09:26:14.250Z,12.30
2019-04-16T09:27:12.530Z,9.90
2019-04-16T09:28:23.852Z,9.60
2019-04-16T09:29:10.473Z,10.90
2019-04-16T09:30:10.740Z,9.30
2019-04-16T09:31:10.378Z,11.10
2019-04-16T09:32:09.101Z,9.60
2019-04-16T09:33:09.095Z,9.80
2019-04-16T09:34:09.092Z,11.20
2019-04-16T09:35:11.348Z,10.70
2019-04-16T09:36:10.062Z,10.60
2019-04-16T09:37:09.063Z,8.90
2019-04-16T09:38:09.351Z,10.50
2019-04-16T09:39:09.078Z,10.80
2019-04-16T09:40:16.698Z,10.90
2019-04-16T09:41:10.009Z,10.30
2019-04-16T09:42:08.996Z,13.20
2019-04-16T09:43:16.569Z,12.40
2019-04-16T09:44:10.010Z,11.70
2019-04-16T09:45:08.972Z,9.20
2019-04-16T09:46:10.938Z,11.60
2019-04-16T09:47:09.945Z,9.40
2019-04-16T09:48:08.930Z,9.70
2019-04-16T09:49:08.924Z,10.10
2019-04-16T09:50:11.013Z,9.60
2019-04-16T09:51:08.903Z,9.80
2019-04-16T09:52:08.888Z,10.20
2019-04-16T09:53:08.878Z,10.10
2019-04-16T09:54:12.677Z,13.20
2019-04-16T09:55:08.873Z,10.60
2019-04-16T09:56:08.855Z,11.30
2019-04-16T09:57:08.842Z,11.90
2019-04-16T09:58:08.841Z,11.10
2019-04-16T09:59:11.088Z,11.60
2019-04-16T10:00:09.819Z,10.10
2019-04-16T10:01:08.810Z,9.90
2019-04-16T10:02:08.800Z,13.20
2019-04-16T10:03:08.778Z,11.60
2019-04-16T10:04:08.764Z,9.80
2019-04-16T10:05:08.759Z,10.80
2019-04-16T10:06:08.760Z,11.00
2019-04-16T10:07:08.733Z,9.40
2019-04-16T10:08:09.568Z,9.90
2019-04-16T10:09:08.709Z,10.40
2019-04-16T10:10:08.708Z,10.50
2019-04-16T10:11:08.727Z,10.40
2019-04-16T10:12:08.736Z,10.30
2019-04-16T10:13:08.684Z,9.70
2019-04-16T10:14:08.675Z,9.80
2019-04-16T10:15:08.648Z,9.20
2019-04-16T10:16:08.640Z,9.60
2019-04-16T10:17:08.661Z,9.80
2019-04-16T10:18:08.625Z,10.30
2019-04-16T10:19:09.252Z,10.00
2019-04-16T10:20:08.599Z,9.80
2019-04-16T10:21:08.596Z,8.70
2019-04-16T10:22:08.626Z,10.20
2019-04-16T10:23:08.580Z,10.70
2019-04-16T10:24:08.556Z,9.60
2019-04-16T10:25:08.565Z,10.70
2019-04-16T10:26:08.546Z,10.80
2019-04-16T10:27:08.527Z,9.30
2019-04-16T10:28:08.520Z,11.20
2019-04-16T10:29:08.509Z,10.90
2019-04-16T10:30:08.511Z,11.60
2019-04-16T10:31:08.476Z,10.40
2019-04-16T10:32:08.505Z,8.70
2019-04-16T10:33:08.466Z,10.80
2019-04-16T10:34:08.480Z,10.30
2019-04-16T10:35:08.528Z,10.10
2019-04-16T10:36:08.451Z,10.60
2019-04-16T10:37:08.439Z,9.20
2019-04-16T10:38:08.459Z,9.10
2019-04-16T10:39:08.418Z,10.90
2019-04-16T10:40:08.382Z,10.60
2019-04-16T10:41:08.377Z,9.40
2019-04-16T10:42:08.373Z,11.00
2019-04-16T10:43:08.365Z,9.50
2019-04-16T10:44:08.379Z,9.80
2019-04-16T10:45:08.358Z,9.30
2019-04-16T10:46:09.843Z,8.60
2019-04-16T10:47:08.314Z,8.20
2019-04-16T10:48:08.316Z,8.90
2019-04-16T10:49:08.297Z,12.40
2019-04-16T10:50:08.278Z,9.40
2019-04-16T10:51:08.272Z,9.20
2019-04-16T10:52:08.268Z,8.20
2019-04-16T10:53:08.303Z,9.70
2019-04-16T10:54:08.331Z,8.80
2019-04-16T10:55:09.354Z,12.70
2019-04-16T10:56:08.236Z,12.80
2019-04-16T10:57:10.345Z,8.70
2019-04-16T10:58:08.218Z,9.00
2019-04-16T10:59:08.190Z,9.30
2019-04-16T11:00:08.212Z,10.40
2019-04-16T11:01:08.191Z,9.10
2019-04-16T11:02:10.636Z,8.70
2019-04-16T11:03:08.151Z,9.80
2019-04-16T11:04:08.648Z,11.00
2019-04-16T11:05:08.134Z,8.30
2019-04-16T11:06:08.229Z,9.50
2019-04-16T11:07:08.136Z,8.90
2019-04-16T11:08:08.271Z,8.60
2019-04-16T11:09:08.098Z,8.20
2019-04-16T11:10:11.578Z,9.40
2019-04-16T11:11:08.092Z,10.90
2019-04-16T11:12:08.052Z,8.70
2019-04-16T11:13:08.059Z,9.60
2019-04-16T11:14:08.041Z,9.30
2019-04-16T11:15:08.045Z,9.10
2019-04-16T11:16:08.030Z,11.70
2019-04-16T11:17:08.243Z,10.10
2019-04-16T11:18:08.019Z,10.00
2019-04-16T11:19:07.984Z,8.90
2019-04-16T11:20:07.979Z,9.90
2019-04-16T11:21:07.979Z,8.90
2019-04-16T11:22:08.401Z,9.50
2019-04-16T11:23:08.175Z,12.30
2019-04-16T11:24:07.955Z,11.40
2019-04-16T11:25:07.939Z,10.60
2019-04-16T11:26:07.905Z,8.90
2019-04-16T11:27:08.126Z,9.00
2019-04-16T11:28:07.933Z,10.20
2019-04-16T11:29:07.873Z,9.90
2019-04-16T11:30:07.874Z,10.60
2019-04-16T11:31:07.913Z,10.50
2019-04-16T11:32:07.841Z,9.50
2019-04-16T11:33:07.867Z,11.90
2019-04-16T11:34:07.850Z,10.60
2019-04-16T11:35:07.843Z,8.80
2019-04-16T11:36:18.786Z,9.40
2019-04-16T11:37:09.766Z,9.00
2019-04-16T11:38:07.817Z,9.80
2019-04-16T11:39:07.775Z,10.40
2019-04-16T11:40:07.760Z,8.70
2019-04-16T11:41:07.760Z,10.80
2019-04-16T11:42:07.769Z,8.30
2019-04-16T11:43:07.770Z,9.30
2019-04-16T11:44:15.660Z,11.60
2019-04-16T11:45:08.746Z,9.60
2019-04-16T11:46:07.741Z,10.20
2019-04-16T11:47:07.942Z,10.10
2019-04-16T11:48:07.687Z,41.30
2019-04-16T11:49:07.944Z,135.90
2019-04-16T11:50:07.696Z,70.30
2019-04-16T11:51:07.747Z,14.70
2019-04-16T11:52:07.698Z,10.00
2019-04-16T11:53:07.858Z,10.70
2019-04-16T11:54:11.222Z,8.10
2019-04-16T11:55:07.622Z,10.20
2019-04-16T11:56:07.623Z,11.50
2019-04-16T11:57:07.624Z,9.70
2019-04-16T11:58:08.189Z,10.50
2019-04-16T11:59:07.583Z,10.90
2019-04-16T12:00:08.513Z,9.80
2019-04-16T12:01:07.571Z,9.10
2019-04-16T12:02:07.536Z,10.10
2019-04-16T12:03:07.666Z,8.70
2019-04-16T12:04:07.630Z,10.80
2019-04-16T12:05:07.697Z,9.00
2019-04-16T12:06:07.566Z,9.30
2019-04-16T12:07:07.596Z,8.80
2019-04-16T12:08:07.525Z,10.20
2019-04-16T12:09:07.474Z,9.00
2019-04-16T12:10:07.457Z,10.40
2019-04-16T12:11:07.483Z,8.90
2019-04-16T12:12:07.433Z,10.20
2019-04-16T12:13:07.512Z,10.00
2019-04-16T12:14:09.628Z,9.90
2019-04-16T12:15:07.582Z,9.40
2019-04-16T12:16:07.432Z,11.00
2019-04-16T12:17:07.388Z,11.70
2019-04-16T12:18:07.378Z,9.50
2019-04-16T12:19:07.374Z,9.00
2019-04-16T12:20:07.350Z,9.50
2019-04-16T12:21:07.380Z,11.40
2019-04-16T12:22:07.348Z,8.80
2019-04-16T12:23:07.338Z,8.70
2019-04-16T12:24:07.324Z,10.40
2019-04-16T12:25:07.343Z,9.70
2019-04-16T12:26:09.436Z,8.90
2019-04-16T12:27:07.352Z,9.60
2019-04-16T12:28:11.815Z,10.60
2019-04-16T12:29:08.255Z,9.80
2019-04-16T12:30:07.242Z,8.70
2019-04-16T12:31:07.272Z,9.60
2019-04-16T12:32:07.268Z,9.10
2019-04-16T12:33:08.966Z,8.60
2019-04-16T12:34:07.218Z,10.10
2019-04-16T12:35:07.219Z,8.70
2019-04-16T12:36:07.229Z,9.70
2019-04-16T12:37:07.193Z,9.40
2019-04-16T12:38:12.245Z,8.30
2019-04-16T12:39:08.149Z,9.60
2019-04-16T12:40:07.183Z,8.60
2019-04-16T12:41:07.146Z,8.30
2019-04-16T12:42:07.125Z,9.10
2019-04-16T12:43:07.153Z,8.50
2019-04-16T12:44:07.414Z,8.50
2019-04-16T12:45:09.037Z,8.80
2019-04-16T12:46:07.094Z,8.00
2019-04-16T12:47:07.090Z,9.10
2019-04-16T12:48:07.064Z,8.10
2019-04-16T12:49:07.062Z,9.90
2019-04-16T12:50:07.048Z,9.50
2019-04-16T12:51:07.054Z,8.00
2019-04-16T12:52:07.113Z,9.20
2019-04-16T12:53:07.000Z,10.10
2019-04-16T12:54:06.995Z,10.60
2019-04-16T12:55:07.002Z,74.00
2019-04-16T12:56:08.583Z,85.70
2019-04-16T12:57:06.972Z,9.50
2019-04-16T12:58:06.973Z,10.40
2019-04-16T12:59:06.957Z,76.00